sensor_id;sensor_type;location;lat;lon;timestamp;P1;durP1;ratioP1;P2;durP2;ratioP2
15256;SDS011;7731;50.720;6.912;2022-08-21T00:00:47;7.22;;;5.28;;
15256;SDS011;7731;50.720;6.912;2022-08-21T00:03:18;7.20;;;5.15;;
15256;SDS011;7731;50.720;6.912;2022-08-21T00:05:49;8.27;;;5.63;;
15256;SDS011;7731;50.720;6.912;2022-08-21T00:08:20;7.82;;;5.25;;
15256;SDS011;7731;50.720;6.912;2022-08-21T00:10:52;10.23;;;5.78;;
15256;SDS011;7731;50.720;6.912;2022-08-21T00:13:25;8.65;;;5.68;;
15256;SDS011;7731;50.720;6.912;2022-08-21T00:15:56;11.23;;;4.90;;
15256;SDS011;7731;50.720;6.912;2022-08-21T00:18:26;7.47;;;5.22;;
15256;SDS011;7731;50.720;6.912;2022-08-21T00:20:57;9.23;;;5.22;;
15256;SDS011;7731;50.720;6.912;2022-08-21T00:23:27;9.13;;;5.32;;
15256;SDS011;7731;50.720;6.912;2022-08-21T00:25:57;9.40;;;5.45;;
15256;SDS011;7731;50.720;6.912;2022-08-21T00:28:30;8.38;;;5.00;;
15256;SDS011;7731;50.720;6.912;2022-08-21T00:31:03;8.50;;;5.07;;
15256;SDS011;7731;50.720;6.912;2022-08-21T00:33:34;13.27;;;5.45;;
15256;SDS011;7731;50.720;6.912;2022-08-21T00:36:07;9.93;;;5.15;;
15256;SDS011;7731;50.720;6.912;2022-08-21T00:38:38;7.88;;;5.38;;
15256;SDS011;7731;50.720;6.912;2022-08-21T00:41:10;8.00;;;5.05;;
15256;SDS011;7731;50.720;6.912;2022-08-21T00:44:03;6.43;;;4.95;;
15256;SDS011;7731;50.720;6.912;2022-08-21T00:46:35;8.40;;;5.35;;
15256;SDS011;7731;50.720;6.912;2022-08-21T00:49:07;8.43;;;5.40;;
15256;SDS011;7731;50.720;6.912;2022-08-21T00:51:42;7.68;;;5.10;;
15256;SDS011;7731;50.720;6.912;2022-08-21T00:54:18;9.32;;;5.53;;
15256;SDS011;7731;50.720;6.912;2022-08-21T00:56:54;8.15;;;5.55;;
15256;SDS011;7731;50.720;6.912;2022-08-21T00:59:34;8.38;;;5.13;;
15256;SDS011;7731;50.720;6.912;2022-08-21T01:02:17;10.25;;;5.78;;
15256;SDS011;7731;50.720;6.912;2022-08-21T01:04:49;6.15;;;5.07;;
15256;SDS011;7731;50.720;6.912;2022-08-21T01:07:19;9.90;;;5.63;;
15256;SDS011;7731;50.720;6.912;2022-08-21T01:09:53;7.65;;;5.35;;
15256;SDS011;7731;50.720;6.912;2022-08-21T01:12:23;9.82;;;5.82;;
15256;SDS011;7731;50.720;6.912;2022-08-21T01:14:57;8.52;;;5.38;;
15256;SDS011;7731;50.720;6.912;2022-08-21T01:17:30;7.50;;;5.50;;
15256;SDS011;7731;50.720;6.912;2022-08-21T01:20:03;6.85;;;5.07;;
15256;SDS011;7731;50.720;6.912;2022-08-21T01:22:40;12.82;;;5.40;;
15256;SDS011;7731;50.720;6.912;2022-08-21T01:25:12;7.63;;;5.10;;
15256;SDS011;7731;50.720;6.912;2022-08-21T01:27:46;7.32;;;5.22;;
15256;SDS011;7731;50.720;6.912;2022-08-21T01:30:18;7.00;;;5.82;;
15256;SDS011;7731;50.720;6.912;2022-08-21T01:32:53;8.63;;;5.90;;
15256;SDS011;7731;50.720;6.912;2022-08-21T01:35:25;7.75;;;5.72;;
15256;SDS011;7731;50.720;6.912;2022-08-21T01:37:59;8.43;;;6.03;;
15256;SDS011;7731;50.720;6.912;2022-08-21T01:40:29;9.05;;;6.38;;
15256;SDS011;7731;50.720;6.912;2022-08-21T01:43:00;10.40;;;5.90;;
15256;SDS011;7731;50.720;6.912;2022-08-21T01:45:30;10.07;;;5.93;;
15256;SDS011;7731;50.720;6.912;2022-08-21T01:48:03;8.45;;;6.40;;
15256;SDS011;7731;50.720;6.912;2022-08-21T01:50:34;14.15;;;6.40;;
15256;SDS011;7731;50.720;6.912;2022-08-21T01:53:08;10.60;;;6.20;;
15256;SDS011;7731;50.720;6.912;2022-08-21T01:55:38;7.63;;;5.50;;
15256;SDS011;7731;50.720;6.912;2022-08-21T01:58:09;7.00;;;5.70;;
15256;SDS011;7731;50.720;6.912;2022-08-21T02:00:39;9.27;;;6.10;;
15256;SDS011;7731;50.720;6.912;2022-08-21T02:03:09;9.07;;;5.72;;
15256;SDS011;7731;50.720;6.912;2022-08-21T02:05:52;8.18;;;6.03;;
15256;SDS011;7731;50.720;6.912;2022-08-21T02:08:24;7.72;;;5.85;;
15256;SDS011;7731;50.720;6.912;2022-08-21T02:10:56;10.32;;;6.30;;
15256;SDS011;7731;50.720;6.912;2022-08-21T02:13:27;10.32;;;6.10;;
15256;SDS011;7731;50.720;6.912;2022-08-21T02:15:57;7.68;;;6.00;;
15256;SDS011;7731;50.720;6.912;2022-08-21T02:18:27;7.32;;;6.00;;
15256;SDS011;7731;50.720;6.912;2022-08-21T02:20:58;8.20;;;5.63;;
15256;SDS011;7731;50.720;6.912;2022-08-21T02:23:33;7.70;;;5.68;;
15256;SDS011;7731;50.720;6.912;2022-08-21T02:26:06;7.15;;;5.88;;
15256;SDS011;7731;50.720;6.912;2022-08-21T02:28:40;11.15;;;5.85;;
15256;SDS011;7731;50.720;6.912;2022-08-21T02:31:11;7.03;;;5.82;;
15256;SDS011;7731;50.720;6.912;2022-08-21T02:33:41;9.18;;;5.75;;
15256;SDS011;7731;50.720;6.912;2022-08-21T02:36:11;8.38;;;6.00;;
15256;SDS011;7731;50.720;6.912;2022-08-21T02:38:45;9.68;;;6.18;;
15256;SDS011;7731;50.720;6.912;2022-08-21T02:41:16;8.82;;;5.97;;
15256;SDS011;7731;50.720;6.912;2022-08-21T02:43:50;8.77;;;6.05;;
15256;SDS011;7731;50.720;6.912;2022-08-21T02:46:20;8.70;;;6.15;;
15256;SDS011;7731;50.720;6.912;2022-08-21T02:48:50;9.20;;;6.18;;
15256;SDS011;7731;50.720;6.912;2022-08-21T02:51:22;7.97;;;5.72;;
15256;SDS011;7731;50.720;6.912;2022-08-21T02:53:56;8.18;;;5.30;;
15256;SDS011;7731;50.720;6.912;2022-08-21T02:56:26;6.13;;;4.85;;
15256;SDS011;7731;50.720;6.912;2022-08-21T02:58:57;7.07;;;5.75;;
15256;SDS011;7731;50.720;6.912;2022-08-21T03:01:27;6.82;;;5.45;;
15256;SDS011;7731;50.720;6.912;2022-08-21T03:03:58;6.72;;;5.05;;
15256;SDS011;7731;50.720;6.912;2022-08-21T03:06:28;6.82;;;5.95;;
15256;SDS011;7731;50.720;6.912;2022-08-21T03:09:02;6.78;;;5.63;;
15256;SDS011;7731;50.720;6.912;2022-08-21T03:11:33;10.02;;;5.75;;
15256;SDS011;7731;50.720;6.912;2022-08-21T03:14:03;9.60;;;6.22;;
15256;SDS011;7731;50.720;6.912;2022-08-21T03:16:33;7.90;;;6.28;;
15256;SDS011;7731;50.720;6.912;2022-08-21T03:19:04;8.10;;;7.05;;
15256;SDS011;7731;50.720;6.912;2022-08-21T03:21:37;8.27;;;6.72;;
15256;SDS011;7731;50.720;6.912;2022-08-21T03:24:10;9.00;;;6.90;;
15256;SDS011;7731;50.720;6.912;2022-08-21T03:26:43;8.88;;;6.95;;
15256;SDS011;7731;50.720;6.912;2022-08-21T03:29:13;7.55;;;6.72;;
15256;SDS011;7731;50.720;6.912;2022-08-21T03:31:43;8.73;;;6.45;;
15256;SDS011;7731;50.720;6.912;2022-08-21T03:34:14;8.52;;;6.35;;
15256;SDS011;7731;50.720;6.912;2022-08-21T03:36:44;7.18;;;5.97;;
15256;SDS011;7731;50.720;6.912;2022-08-21T03:39:18;8.85;;;5.97;;
15256;SDS011;7731;50.720;6.912;2022-08-21T03:41:48;6.80;;;5.70;;
15256;SDS011;7731;50.720;6.912;2022-08-21T03:44:19;7.35;;;6.13;;
15256;SDS011;7731;50.720;6.912;2022-08-21T03:46:50;7.78;;;6.00;;
15256;SDS011;7731;50.720;6.912;2022-08-21T03:49:20;7.35;;;5.97;;
15256;SDS011;7731;50.720;6.912;2022-08-21T03:51:56;6.80;;;6.05;;
15256;SDS011;7731;50.720;6.912;2022-08-21T03:54:31;9.65;;;6.13;;
15256;SDS011;7731;50.720;6.912;2022-08-21T03:57:09;6.90;;;5.80;;
15256;SDS011;7731;50.720;6.912;2022-08-21T03:59:40;7.00;;;5.78;;
15256;SDS011;7731;50.720;6.912;2022-08-21T04:02:10;8.27;;;6.10;;
15256;SDS011;7731;50.720;6.912;2022-08-21T04:04:45;7.63;;;5.32;;
15256;SDS011;7731;50.720;6.912;2022-08-21T04:07:15;7.93;;;5.80;;
15256;SDS011;7731;50.720;6.912;2022-08-21T04:09:49;7.80;;;5.88;;
15256;SDS011;7731;50.720;6.912;2022-08-21T04:12:19;8.02;;;6.30;;
15256;SDS011;7731;50.720;6.912;2022-08-21T04:14:50;8.18;;;6.40;;
15256;SDS011;7731;50.720;6.912;2022-08-21T04:17:21;7.70;;;6.10;;
15256;SDS011;7731;50.720;6.912;2022-08-21T04:19:51;9.00;;;6.35;;
15256;SDS011;7731;50.720;6.912;2022-08-21T04:22:24;6.75;;;6.15;;
15256;SDS011;7731;50.720;6.912;2022-08-21T04:24:56;7.90;;;6.20;;
15256;SDS011;7731;50.720;6.912;2022-08-21T04:27:27;8.13;;;6.35;;
15256;SDS011;7731;50.720;6.912;2022-08-21T04:29:57;8.98;;;6.13;;
15256;SDS011;7731;50.720;6.912;2022-08-21T04:32:27;6.30;;;5.50;;
15256;SDS011;7731;50.720;6.912;2022-08-21T04:34:58;11.13;;;6.82;;
15256;SDS011;7731;50.720;6.912;2022-08-21T04:37:34;7.57;;;5.75;;
15256;SDS011;7731;50.720;6.912;2022-08-21T04:40:14;8.50;;;6.25;;
15256;SDS011;7731;50.720;6.912;2022-08-21T04:42:48;8.25;;;6.45;;
15256;SDS011;7731;50.720;6.912;2022-08-21T04:45:22;8.13;;;6.35;;
15256;SDS011;7731;50.720;6.912;2022-08-21T04:47:59;7.13;;;6.25;;
15256;SDS011;7731;50.720;6.912;2022-08-21T04:50:39;9.68;;;6.38;;
15256;SDS011;7731;50.720;6.912;2022-08-21T04:53:17;13.55;;;6.63;;
15256;SDS011;7731;50.720;6.912;2022-08-21T04:55:54;9.77;;;6.07;;
15256;SDS011;7731;50.720;6.912;2022-08-21T04:58:31;8.18;;;6.40;;
15256;SDS011;7731;50.720;6.912;2022-08-21T05:01:06;6.82;;;6.10;;
15256;SDS011;7731;50.720;6.912;2022-08-21T05:03:42;6.85;;;5.30;;
15256;SDS011;7731;50.720;6.912;2022-08-21T05:06:16;9.15;;;6.68;;
15256;SDS011;7731;50.720;6.912;2022-08-21T05:08:48;8.85;;;6.90;;
15256;SDS011;7731;50.720;6.912;2022-08-21T05:11:30;12.10;;;6.97;;
15256;SDS011;7731;50.720;6.912;2022-08-21T05:14:01;7.88;;;7.05;;
15256;SDS011;7731;50.720;6.912;2022-08-21T05:16:31;9.68;;;7.57;;
15256;SDS011;7731;50.720;6.912;2022-08-21T05:19:06;9.80;;;7.47;;
15256;SDS011;7731;50.720;6.912;2022-08-21T05:21:38;12.13;;;7.43;;
15256;SDS011;7731;50.720;6.912;2022-08-21T05:24:11;8.20;;;7.38;;
15256;SDS011;7731;50.720;6.912;2022-08-21T05:26:44;10.15;;;6.97;;
15256;SDS011;7731;50.720;6.912;2022-08-21T05:29:15;9.82;;;6.90;;
15256;SDS011;7731;50.720;6.912;2022-08-21T05:31:47;8.85;;;7.32;;
15256;SDS011;7731;50.720;6.912;2022-08-21T05:34:21;9.50;;;7.30;;
15256;SDS011;7731;50.720;6.912;2022-08-21T05:36:53;10.63;;;7.22;;
15256;SDS011;7731;50.720;6.912;2022-08-21T05:39:23;8.10;;;6.85;;
15256;SDS011;7731;50.720;6.912;2022-08-21T05:42:16;8.30;;;6.47;;
15256;SDS011;7731;50.720;6.912;2022-08-21T05:44:46;8.73;;;6.63;;
15256;SDS011;7731;50.720;6.912;2022-08-21T05:47:17;9.10;;;6.65;;
15256;SDS011;7731;50.720;6.912;2022-08-21T05:49:48;11.82;;;6.82;;
15256;SDS011;7731;50.720;6.912;2022-08-21T05:52:19;8.07;;;6.57;;
15256;SDS011;7731;50.720;6.912;2022-08-21T05:54:50;8.65;;;6.90;;
15256;SDS011;7731;50.720;6.912;2022-08-21T05:57:26;10.77;;;8.00;;
15256;SDS011;7731;50.720;6.912;2022-08-21T05:59:56;7.97;;;7.03;;
15256;SDS011;7731;50.720;6.912;2022-08-21T06:02:27;9.82;;;7.22;;
15256;SDS011;7731;50.720;6.912;2022-08-21T06:04:57;8.07;;;6.95;;
15256;SDS011;7731;50.720;6.912;2022-08-21T06:07:27;11.77;;;6.72;;
15256;SDS011;7731;50.720;6.912;2022-08-21T06:09:57;10.05;;;7.10;;
15256;SDS011;7731;50.720;6.912;2022-08-21T06:12:30;10.82;;;7.22;;
15256;SDS011;7731;50.720;6.912;2022-08-21T06:15:08;10.88;;;6.70;;
15256;SDS011;7731;50.720;6.912;2022-08-21T06:17:41;9.40;;;6.32;;
15256;SDS011;7731;50.720;6.912;2022-08-21T06:20:11;7.53;;;5.45;;
15256;SDS011;7731;50.720;6.912;2022-08-21T06:22:41;10.40;;;5.03;;
15256;SDS011;7731;50.720;6.912;2022-08-21T06:25:12;10.20;;;5.80;;
15256;SDS011;7731;50.720;6.912;2022-08-21T06:27:44;7.13;;;5.25;;
15256;SDS011;7731;50.720;6.912;2022-08-21T06:30:15;7.57;;;5.72;;
15256;SDS011;7731;50.720;6.912;2022-08-21T06:32:46;8.65;;;5.75;;
15256;SDS011;7731;50.720;6.912;2022-08-21T06:35:16;7.28;;;6.30;;
15256;SDS011;7731;50.720;6.912;2022-08-21T06:37:47;7.03;;;5.45;;
15256;SDS011;7731;50.720;6.912;2022-08-21T06:40:17;10.30;;;6.32;;
15256;SDS011;7731;50.720;6.912;2022-08-21T06:42:53;7.13;;;5.72;;
15256;SDS011;7731;50.720;6.912;2022-08-21T06:45:24;8.13;;;5.10;;
15256;SDS011;7731;50.720;6.912;2022-08-21T06:47:58;7.95;;;5.25;;
15256;SDS011;7731;50.720;6.912;2022-08-21T06:50:28;7.20;;;4.40;;
15256;SDS011;7731;50.720;6.912;2022-08-21T06:53:02;8.95;;;4.85;;
15256;SDS011;7731;50.720;6.912;2022-08-21T06:55:34;6.20;;;4.30;;
15256;SDS011;7731;50.720;6.912;2022-08-21T06:58:09;8.40;;;4.85;;
15256;SDS011;7731;50.720;6.912;2022-08-21T07:00:41;9.30;;;4.07;;
15256;SDS011;7731;50.720;6.912;2022-08-21T07:03:18;5.60;;;4.30;;
15256;SDS011;7731;50.720;6.912;2022-08-21T07:05:50;8.15;;;4.40;;
15256;SDS011;7731;50.720;6.912;2022-08-21T07:08:21;5.90;;;4.30;;
15256;SDS011;7731;50.720;6.912;2022-08-21T07:10:52;6.75;;;4.15;;
15256;SDS011;7731;50.720;6.912;2022-08-21T07:13:27;7.40;;;4.65;;
15256;SDS011;7731;50.720;6.912;2022-08-21T07:15:57;6.18;;;3.90;;
15256;SDS011;7731;50.720;6.912;2022-08-21T07:18:30;5.82;;;4.13;;
15256;SDS011;7731;50.720;6.912;2022-08-21T07:21:01;7.18;;;4.25;;
15256;SDS011;7731;50.720;6.912;2022-08-21T07:23:37;8.15;;;4.03;;
15256;SDS011;7731;50.720;6.912;2022-08-21T07:26:15;8.10;;;3.53;;
15256;SDS011;7731;50.720;6.912;2022-08-21T07:28:51;6.38;;;3.17;;
15256;SDS011;7731;50.720;6.912;2022-08-21T07:31:23;4.95;;;2.95;;
15256;SDS011;7731;50.720;6.912;2022-08-21T07:33:56;4.60;;;2.80;;
15256;SDS011;7731;50.720;6.912;2022-08-21T07:36:26;5.05;;;3.33;;
15256;SDS011;7731;50.720;6.912;2022-08-21T07:39:00;4.45;;;2.60;;
15256;SDS011;7731;50.720;6.912;2022-08-21T07:41:30;3.67;;;2.30;;
15256;SDS011;7731;50.720;6.912;2022-08-21T07:44:04;3.47;;;2.30;;
15256;SDS011;7731;50.720;6.912;2022-08-21T07:46:38;5.07;;;2.42;;
15256;SDS011;7731;50.720;6.912;2022-08-21T07:49:08;5.60;;;2.42;;
15256;SDS011;7731;50.720;6.912;2022-08-21T07:51:38;6.57;;;2.30;;
15256;SDS011;7731;50.720;6.912;2022-08-21T07:54:08;4.32;;;2.50;;
15256;SDS011;7731;50.720;6.912;2022-08-21T07:56:42;4.32;;;2.20;;
15256;SDS011;7731;50.720;6.912;2022-08-21T07:59:15;4.43;;;2.35;;
15256;SDS011;7731;50.720;6.912;2022-08-21T08:01:46;7.18;;;2.25;;
15256;SDS011;7731;50.720;6.912;2022-08-21T08:04:16;3.78;;;2.05;;
15256;SDS011;7731;50.720;6.912;2022-08-21T08:06:51;3.97;;;2.50;;
15256;SDS011;7731;50.720;6.912;2022-08-21T08:09:22;6.38;;;2.78;;
15256;SDS011;7731;50.720;6.912;2022-08-21T08:11:54;3.60;;;2.28;;
15256;SDS011;7731;50.720;6.912;2022-08-21T08:14:27;5.70;;;2.10;;
15256;SDS011;7731;50.720;6.912;2022-08-21T08:16:57;4.63;;;2.25;;
15256;SDS011;7731;50.720;6.912;2022-08-21T08:19:37;4.05;;;2.10;;
15256;SDS011;7731;50.720;6.912;2022-08-21T08:22:14;5.20;;;2.20;;
15256;SDS011;7731;50.720;6.912;2022-08-21T08:24:46;4.88;;;2.58;;
15256;SDS011;7731;50.720;6.912;2022-08-21T08:27:17;4.50;;;2.40;;
15256;SDS011;7731;50.720;6.912;2022-08-21T08:29:51;5.82;;;2.90;;
15256;SDS011;7731;50.720;6.912;2022-08-21T08:32:21;4.53;;;2.47;;
15256;SDS011;7731;50.720;6.912;2022-08-21T08:34:52;6.20;;;3.00;;
15256;SDS011;7731;50.720;6.912;2022-08-21T08:37:22;6.38;;;2.42;;
15256;SDS011;7731;50.720;6.912;2022-08-21T08:39:59;5.70;;;2.85;;
15256;SDS011;7731;50.720;6.912;2022-08-21T08:42:32;5.55;;;2.58;;
15256;SDS011;7731;50.720;6.912;2022-08-21T08:45:08;4.95;;;2.55;;
15256;SDS011;7731;50.720;6.912;2022-08-21T08:47:43;5.75;;;2.70;;
15256;SDS011;7731;50.720;6.912;2022-08-21T08:50:19;6.85;;;2.65;;
15256;SDS011;7731;50.720;6.912;2022-08-21T08:52:58;6.65;;;2.97;;
15256;SDS011;7731;50.720;6.912;2022-08-21T08:55:36;4.43;;;2.80;;
15256;SDS011;7731;50.720;6.912;2022-08-21T08:58:10;5.40;;;2.95;;
15256;SDS011;7731;50.720;6.912;2022-08-21T09:00:55;5.38;;;2.80;;
15256;SDS011;7731;50.720;6.912;2022-08-21T09:03:27;5.20;;;2.65;;
15256;SDS011;7731;50.720;6.912;2022-08-21T09:06:00;6.93;;;2.95;;
15256;SDS011;7731;50.720;6.912;2022-08-21T09:08:48;4.88;;;2.78;;
15256;SDS011;7731;50.720;6.912;2022-08-21T09:11:31;6.00;;;3.13;;
15256;SDS011;7731;50.720;6.912;2022-08-21T09:14:28;6.15;;;2.67;;
15256;SDS011;7731;50.720;6.912;2022-08-21T09:17:29;6.10;;;2.90;;
15256;SDS011;7731;50.720;6.912;2022-08-21T09:20:23;6.03;;;2.58;;
15256;SDS011;7731;50.720;6.912;2022-08-21T09:23:08;3.97;;;2.42;;
15256;SDS011;7731;50.720;6.912;2022-08-21T09:25:59;5.47;;;2.60;;
15256;SDS011;7731;50.720;6.912;2022-08-21T09:28:41;6.72;;;2.65;;
15256;SDS011;7731;50.720;6.912;2022-08-21T09:31:16;7.88;;;2.60;;
15256;SDS011;7731;50.720;6.912;2022-08-21T09:33:59;3.45;;;2.22;;
15256;SDS011;7731;50.720;6.912;2022-08-21T09:36:40;6.65;;;2.33;;
15256;SDS011;7731;50.720;6.912;2022-08-21T09:39:22;3.25;;;2.20;;
15256;SDS011;7731;50.720;6.912;2022-08-21T09:41:57;3.72;;;2.28;;
15256;SDS011;7731;50.720;6.912;2022-08-21T09:44:32;5.93;;;2.70;;
15256;SDS011;7731;50.720;6.912;2022-08-21T09:47:10;5.93;;;2.50;;
15256;SDS011;7731;50.720;6.912;2022-08-21T09:49:51;6.25;;;2.50;;
15256;SDS011;7731;50.720;6.912;2022-08-21T09:52:24;5.13;;;2.45;;
15256;SDS011;7731;50.720;6.912;2022-08-21T09:54:55;4.30;;;2.50;;
15256;SDS011;7731;50.720;6.912;2022-08-21T09:57:27;4.80;;;2.33;;
15256;SDS011;7731;50.720;6.912;2022-08-21T10:00:15;5.90;;;2.83;;
15256;SDS011;7731;50.720;6.912;2022-08-21T10:03:06;5.80;;;2.65;;
15256;SDS011;7731;50.720;6.912;2022-08-21T10:05:49;5.20;;;2.33;;
15256;SDS011;7731;50.720;6.912;2022-08-21T10:08:26;4.22;;;2.40;;
15256;SDS011;7731;50.720;6.912;2022-08-21T10:11:01;5.57;;;2.17;;
15256;SDS011;7731;50.720;6.912;2022-08-21T10:13:40;5.00;;;2.33;;
15256;SDS011;7731;50.720;6.912;2022-08-21T10:16:25;6.10;;;2.33;;
15256;SDS011;7731;50.720;6.912;2022-08-21T10:19:11;5.88;;;2.58;;
15256;SDS011;7731;50.720;6.912;2022-08-21T10:22:02;3.78;;;2.15;;
15256;SDS011;7731;50.720;6.912;2022-08-21T10:24:51;6.03;;;2.25;;
15256;SDS011;7731;50.720;6.912;2022-08-21T10:27:40;4.93;;;2.42;;
15256;SDS011;7731;50.720;6.912;2022-08-21T10:30:28;6.30;;;2.53;;
15256;SDS011;7731;50.720;6.912;2022-08-21T10:33:13;3.28;;;2.10;;
15256;SDS011;7731;50.720;6.912;2022-08-21T10:36:08;5.22;;;2.33;;
15256;SDS011;7731;50.720;6.912;2022-08-21T10:38:52;6.68;;;2.28;;
15256;SDS011;7731;50.720;6.912;2022-08-21T10:42:00;6.30;;;2.30;;
15256;SDS011;7731;50.720;6.912;2022-08-21T10:44:56;4.45;;;2.30;;
15256;SDS011;7731;50.720;6.912;2022-08-21T10:47:46;4.13;;;2.03;;
15256;SDS011;7731;50.720;6.912;2022-08-21T10:50:27;2.95;;;2.05;;
15256;SDS011;7731;50.720;6.912;2022-08-21T10:56:30;3.70;;;1.90;;
15256;SDS011;7731;50.720;6.912;2022-08-21T10:59:20;5.72;;;2.25;;
15256;SDS011;7731;50.720;6.912;2022-08-21T11:02:08;3.45;;;1.75;;
15256;SDS011;7731;50.720;6.912;2022-08-21T11:04:51;4.10;;;2.15;;
15256;SDS011;7731;50.720;6.912;2022-08-21T11:07:30;4.85;;;1.92;;
15256;SDS011;7731;50.720;6.912;2022-08-21T11:10:07;2.58;;;1.60;;
15256;SDS011;7731;50.720;6.912;2022-08-21T11:12:50;2.60;;;1.60;;
15256;SDS011;7731;50.720;6.912;2022-08-21T11:15:31;2.50;;;1.75;;
15256;SDS011;7731;50.720;6.912;2022-08-21T11:18:15;4.18;;;1.67;;
15256;SDS011;7731;50.720;6.912;2022-08-21T11:20:56;3.83;;;1.95;;
15256;SDS011;7731;50.720;6.912;2022-08-21T11:23:40;4.38;;;2.10;;
15256;SDS011;7731;50.720;6.912;2022-08-21T11:26:17;4.30;;;1.98;;
15256;SDS011;7731;50.720;6.912;2022-08-21T11:29:02;3.28;;;1.80;;
15256;SDS011;7731;50.720;6.912;2022-08-21T11:31:46;8.45;;;2.20;;
15256;SDS011;7731;50.720;6.912;2022-08-21T11:34:46;4.55;;;1.77;;
15256;SDS011;7731;50.720;6.912;2022-08-21T11:37:34;4.05;;;2.05;;
15256;SDS011;7731;50.720;6.912;2022-08-21T11:40:24;3.10;;;1.80;;
15256;SDS011;7731;50.720;6.912;2022-08-21T11:43:31;4.93;;;1.85;;
15256;SDS011;7731;50.720;6.912;2022-08-21T11:46:14;5.00;;;1.85;;
15256;SDS011;7731;50.720;6.912;2022-08-21T11:49:03;4.00;;;1.70;;
15256;SDS011;7731;50.720;6.912;2022-08-21T11:51:51;4.05;;;2.15;;
15256;SDS011;7731;50.720;6.912;2022-08-21T11:54:37;4.80;;;2.25;;
15256;SDS011;7731;50.720;6.912;2022-08-21T11:57:19;5.15;;;1.98;;
15256;SDS011;7731;50.720;6.912;2022-08-21T11:59:58;5.10;;;2.05;;
15256;SDS011;7731;50.720;6.912;2022-08-21T12:02:40;3.78;;;1.98;;
15256;SDS011;7731;50.720;6.912;2022-08-21T12:05:30;3.20;;;1.77;;
15256;SDS011;7731;50.720;6.912;2022-08-21T12:08:09;5.65;;;2.05;;
15256;SDS011;7731;50.720;6.912;2022-08-21T12:10:46;3.05;;;1.88;;
15256;SDS011;7731;50.720;6.912;2022-08-21T12:13:32;3.75;;;1.77;;
15256;SDS011;7731;50.720;6.912;2022-08-21T12:16:12;2.90;;;1.85;;
15256;SDS011;7731;50.720;6.912;2022-08-21T12:19:10;4.90;;;1.80;;
15256;SDS011;7731;50.720;6.912;2022-08-21T12:21:48;10.60;;;2.05;;
15256;SDS011;7731;50.720;6.912;2022-08-21T12:24:31;7.22;;;2.05;;
15256;SDS011;7731;50.720;6.912;2022-08-21T12:27:14;6.07;;;2.20;;
15256;SDS011;7731;50.720;6.912;2022-08-21T12:29:56;5.00;;;1.98;;
15256;SDS011;7731;50.720;6.912;2022-08-21T12:32:42;4.43;;;2.30;;
15256;SDS011;7731;50.720;6.912;2022-08-21T12:35:19;5.47;;;1.88;;
15256;SDS011;7731;50.720;6.912;2022-08-21T12:37:59;3.03;;;1.63;;
15256;SDS011;7731;50.720;6.912;2022-08-21T12:40:39;5.22;;;1.90;;
15256;SDS011;7731;50.720;6.912;2022-08-21T12:43:17;2.72;;;1.70;;
15256;SDS011;7731;50.720;6.912;2022-08-21T12:45:55;4.43;;;2.00;;
15256;SDS011;7731;50.720;6.912;2022-08-21T12:48:29;6.80;;;2.00;;
15256;SDS011;7731;50.720;6.912;2022-08-21T12:51:09;4.00;;;1.95;;
15256;SDS011;7731;50.720;6.912;2022-08-21T12:53:45;4.32;;;1.65;;
15256;SDS011;7731;50.720;6.912;2022-08-21T12:56:20;3.70;;;1.67;;
15256;SDS011;7731;50.720;6.912;2022-08-21T12:58:55;3.53;;;1.58;;
15256;SDS011;7731;50.720;6.912;2022-08-21T13:01:32;4.43;;;1.70;;
15256;SDS011;7731;50.720;6.912;2022-08-21T13:04:08;3.85;;;2.00;;
15256;SDS011;7731;50.720;6.912;2022-08-21T13:06:50;6.78;;;2.38;;
15256;SDS011;7731;50.720;6.912;2022-08-21T13:09:28;7.70;;;2.10;;
15256;SDS011;7731;50.720;6.912;2022-08-21T13:12:00;4.88;;;2.05;;
15256;SDS011;7731;50.720;6.912;2022-08-21T13:14:34;3.30;;;1.42;;
15256;SDS011;7731;50.720;6.912;2022-08-21T13:17:13;5.05;;;1.90;;
15256;SDS011;7731;50.720;6.912;2022-08-21T13:19:59;2.97;;;1.75;;
15256;SDS011;7731;50.720;6.912;2022-08-21T13:22:43;3.55;;;1.80;;
15256;SDS011;7731;50.720;6.912;2022-08-21T13:25:15;3.75;;;1.70;;
15256;SDS011;7731;50.720;6.912;2022-08-21T13:27:57;5.57;;;2.75;;
15256;SDS011;7731;50.720;6.912;2022-08-21T13:30:33;3.97;;;2.03;;
15256;SDS011;7731;50.720;6.912;2022-08-21T13:33:09;3.50;;;1.98;;
15256;SDS011;7731;50.720;6.912;2022-08-21T13:35:47;6.35;;;2.13;;
15256;SDS011;7731;50.720;6.912;2022-08-21T13:38:30;4.50;;;1.70;;
15256;SDS011;7731;50.720;6.912;2022-08-21T13:41:06;6.25;;;1.80;;
15256;SDS011;7731;50.720;6.912;2022-08-21T13:43:49;3.97;;;1.80;;
15256;SDS011;7731;50.720;6.912;2022-08-21T13:46:28;3.25;;;2.03;;
15256;SDS011;7731;50.720;6.912;2022-08-21T13:49:03;4.10;;;2.00;;
15256;SDS011;7731;50.720;6.912;2022-08-21T13:51:36;4.93;;;1.98;;
15256;SDS011;7731;50.720;6.912;2022-08-21T13:54:16;4.65;;;1.88;;
15256;SDS011;7731;50.720;6.912;2022-08-21T13:56:54;2.60;;;1.42;;
15256;SDS011;7731;50.720;6.912;2022-08-21T13:59:26;3.15;;;1.77;;
15256;SDS011;7731;50.720;6.912;2022-08-21T14:01:59;3.58;;;1.60;;
15256;SDS011;7731;50.720;6.912;2022-08-21T14:04:47;5.10;;;1.92;;
15256;SDS011;7731;50.720;6.912;2022-08-21T14:07:25;5.20;;;1.77;;
15256;SDS011;7731;50.720;6.912;2022-08-21T14:10:11;5.00;;;1.80;;
15256;SDS011;7731;50.720;6.912;2022-08-21T14:12:46;3.35;;;1.95;;
15256;SDS011;7731;50.720;6.912;2022-08-21T14:15:24;4.25;;;1.40;;
15256;SDS011;7731;50.720;6.912;2022-08-21T14:18:06;4.32;;;1.80;;
15256;SDS011;7731;50.720;6.912;2022-08-21T14:20:44;6.85;;;2.08;;
15256;SDS011;7731;50.720;6.912;2022-08-21T14:23:23;4.68;;;2.03;;
15256;SDS011;7731;50.720;6.912;2022-08-21T14:26:01;4.88;;;1.90;;
15256;SDS011;7731;50.720;6.912;2022-08-21T14:28:37;5.18;;;2.15;;
15256;SDS011;7731;50.720;6.912;2022-08-21T14:31:14;6.25;;;2.05;;
15256;SDS011;7731;50.720;6.912;2022-08-21T14:33:49;4.10;;;1.95;;
15256;SDS011;7731;50.720;6.912;2022-08-21T14:36:19;3.50;;;2.10;;
15256;SDS011;7731;50.720;6.912;2022-08-21T14:38:49;4.13;;;1.85;;
15256;SDS011;7731;50.720;6.912;2022-08-21T14:41:23;5.88;;;2.13;;
15256;SDS011;7731;50.720;6.912;2022-08-21T14:43:57;4.15;;;2.00;;
15256;SDS011;7731;50.720;6.912;2022-08-21T14:46:35;5.30;;;2.10;;
15256;SDS011;7731;50.720;6.912;2022-08-21T14:49:21;5.07;;;2.05;;
15256;SDS011;7731;50.720;6.912;2022-08-21T14:51:55;4.18;;;1.88;;
15256;SDS011;7731;50.720;6.912;2022-08-21T14:54:27;5.38;;;2.05;;
15256;SDS011;7731;50.720;6.912;2022-08-21T14:57:04;3.53;;;1.90;;
15256;SDS011;7731;50.720;6.912;2022-08-21T14:59:39;5.18;;;1.80;;
15256;SDS011;7731;50.720;6.912;2022-08-21T15:02:10;5.05;;;2.10;;
15256;SDS011;7731;50.720;6.912;2022-08-21T15:04:43;4.68;;;2.30;;
15256;SDS011;7731;50.720;6.912;2022-08-21T15:07:13;3.08;;;1.80;;
15256;SDS011;7731;50.720;6.912;2022-08-21T15:09:43;4.72;;;2.10;;
15256;SDS011;7731;50.720;6.912;2022-08-21T15:12:16;6.70;;;2.20;;
15256;SDS011;7731;50.720;6.912;2022-08-21T15:14:47;4.10;;;1.88;;
15256;SDS011;7731;50.720;6.912;2022-08-21T15:17:17;4.18;;;2.25;;
15256;SDS011;7731;50.720;6.912;2022-08-21T15:19:48;6.05;;;1.90;;
15256;SDS011;7731;50.720;6.912;2022-08-21T15:22:18;3.95;;;1.90;;
15256;SDS011;7731;50.720;6.912;2022-08-21T15:24:53;3.67;;;1.75;;
15256;SDS011;7731;50.720;6.912;2022-08-21T15:27:26;4.10;;;2.03;;
15256;SDS011;7731;50.720;6.912;2022-08-21T15:29:58;3.10;;;1.90;;
15256;SDS011;7731;50.720;6.912;2022-08-21T15:32:28;5.63;;;1.90;;
15256;SDS011;7731;50.720;6.912;2022-08-21T15:34:58;4.18;;;2.10;;
15256;SDS011;7731;50.720;6.912;2022-08-21T15:37:29;3.90;;;2.03;;
15256;SDS011;7731;50.720;6.912;2022-08-21T15:40:02;4.00;;;1.60;;
15256;SDS011;7731;50.720;6.912;2022-08-21T15:42:38;6.88;;;2.20;;
15256;SDS011;7731;50.720;6.912;2022-08-21T15:45:09;3.30;;;2.15;;
15256;SDS011;7731;50.720;6.912;2022-08-21T15:47:43;5.35;;;1.70;;
15256;SDS011;7731;50.720;6.912;2022-08-21T15:50:15;5.03;;;1.95;;
15256;SDS011;7731;50.720;6.912;2022-08-21T15:52:47;6.03;;;2.00;;
15256;SDS011;7731;50.720;6.912;2022-08-21T15:55:20;7.30;;;1.67;;